sensor_id;sensor_type;location;lat;lon;timestamp;P1;P2;P0
30713;PMS7003;17465;47.934;33.430;2022-09-20T00:02:14;4.00;4.00;1.25
30713;PMS7003;17465;47.934;33.430;2022-09-20T00:04:46;3.25;3.00;1.00
30713;PMS7003;17465;47.934;33.430;2022-09-20T00:07:17;3.75;2.50;1.50
30713;PMS7003;17465;47.934;33.430;2022-09-20T00:09:48;3.75;3.75;2.00
30713;PMS7003;17465;47.934;33.430;2022-09-20T00:12:18;3.50;3.50;1.25
30713;PMS7003;17465;47.934;33.430;2022-09-20T00:14:52;4.00;4.00;2.75
30713;PMS7003;17465;47.934;33.430;2022-09-20T00:17:22;3.00;3.00;1.00
30713;PMS7003;17465;47.934;33.430;2022-09-20T00:19:53;4.00;3.00;2.00
30713;PMS7003;17465;47.934;33.430;2022-09-20T00:22:25;2.75;2.75;2.00
30713;PMS7003;17465;47.934;33.430;2022-09-20T00:24:56;4.00;4.00;2.50
30713;PMS7003;17465;47.934;33.430;2022-09-20T00:27:26;4.75;4.00;2.25
30713;PMS7003;17465;47.934;33.430;2022-09-20T00:29:56;5.00;5.00;2.00
30713;PMS7003;17465;47.934;33.430;2022-09-20T00:32:26;4.00;4.00;2.00
30713;PMS7003;17465;47.934;33.430;2022-09-20T00:34:57;4.50;4.50;2.25
30713;PMS7003;17465;47.934;33.430;2022-09-20T00:37:27;4.50;2.75;2.00
30713;PMS7003;17465;47.934;33.430;2022-09-20T00:39:58;4.00;3.00;2.00
30713;PMS7003;17465;47.934;33.430;2022-09-20T00:42:29;4.25;4.25;2.00
30713;PMS7003;17465;47.934;33.430;2022-09-20T00:45:02;2.00;2.00;1.50
30713;PMS7003;17465;47.934;33.430;2022-09-20T00:50:39;3.50;3.50;2.25
30713;PMS7003;17465;47.934;33.430;2022-09-20T00:53:17;3.00;3.00;1.00
30713;PMS7003;17465;47.934;33.430;2022-09-20T00:56:07;2.25;2.25;1.00
30713;PMS7003;17465;47.934;33.430;2022-09-20T00:58:35;4.25;3.00;2.00
30713;PMS7003;17465;47.934;33.430;2022-09-20T01:01:08;6.00;6.00;3.00
30713;PMS7003;17465;47.934;33.430;2022-09-20T01:03:40;3.00;3.00;2.00
30713;PMS7003;17465;47.934;33.430;2022-09-20T01:06:12;4.00;4.00;2.00
30713;PMS7003;17465;47.934;33.430;2022-09-20T01:08:44;3.00;3.00;1.25
30713;PMS7003;17465;47.934;33.430;2022-09-20T01:11:17;5.00;4.00;2.25
30713;PMS7003;17465;47.934;33.430;2022-09-20T01:13:48;5.00;4.25;2.25
30713;PMS7003;17465;47.934;33.430;2022-09-20T01:16:18;5.00;5.00;3.25
30713;PMS7003;17465;47.934;33.430;2022-09-20T01:18:50;5.00;3.75;2.00
30713;PMS7003;17465;47.934;33.430;2022-09-20T01:21:23;3.00;3.00;1.50
30713;PMS7003;17465;47.934;33.430;2022-09-20T01:23:59;4.75;4.75;3.00
30713;PMS7003;17465;47.934;33.430;2022-09-20T01:26:48;4.25;4.25;2.75
30713;PMS7003;17465;47.934;33.430;2022-09-20T01:32:13;3.25;3.25;2.00
30713;PMS7003;17465;47.934;33.430;2022-09-20T01:34:49;5.50;5.00;3.00
30713;PMS7003;17465;47.934;33.430;2022-09-20T01:37:40;11.00;9.50;5.75
30713;PMS7003;17465;47.934;33.430;2022-09-20T01:43:15;6.50;6.50;3.50
30713;PMS7003;17465;47.934;33.430;2022-09-20T01:45:48;6.50;5.50;2.00
30713;PMS7003;17465;47.934;33.430;2022-09-20T01:48:55;5.50;5.00;3.50
30713;PMS7003;17465;47.934;33.430;2022-09-20T01:51:36;7.00;7.00;3.75
30713;PMS7003;17465;47.934;33.430;2022-09-20T02:00:22;4.25;4.25;2.75
30713;PMS7003;17465;47.934;33.430;2022-09-20T02:03:04;6.25;5.50;3.00
30713;PMS7003;17465;47.934;33.430;2022-09-20T02:38:17;3.25;3.25;2.00
30713;PMS7003;17465;47.934;33.430;2022-09-20T02:46:39;5.00;5.00;2.75
30713;PMS7003;17465;47.934;33.430;2022-09-20T02:49:22;16.00;15.50;8.75
30713;PMS7003;17465;47.934;33.430;2022-09-20T02:51:52;6.25;6.25;4.00
30713;PMS7003;17465;47.934;33.430;2022-09-20T02:54:27;5.00;5.00;4.00
30713;PMS7003;17465;47.934;33.430;2022-09-20T02:56:59;8.25;8.25;5.75
30713;PMS7003;17465;47.934;33.430;2022-09-20T02:59:48;7.00;7.00;5.00
30713;PMS7003;17465;47.934;33.430;2022-09-20T03:02:55;9.75;7.00;4.75
30713;PMS7003;17465;47.934;33.430;2022-09-20T03:05:31;7.00;7.00;4.25
30713;PMS7003;17465;47.934;33.430;2022-09-20T03:08:19;8.00;7.50;5.00
30713;PMS7003;17465;47.934;33.430;2022-09-20T03:17:04;5.00;5.00;2.00
30713;PMS7003;17465;47.934;33.430;2022-09-20T03:26:14;9.25;7.00;4.25
30713;PMS7003;17465;47.934;33.430;2022-09-20T03:30:23;8.50;8.00;4.00
30713;PMS7003;17465;47.934;33.430;2022-09-20T03:32:04;12.75;12.75;7.25
30713;PMS7003;17465;47.934;33.430;2022-09-20T03:35:02;8.75;7.50;4.50
30713;PMS7003;17465;47.934;33.430;2022-09-20T03:46:46;14.00;14.00;7.75
30713;PMS7003;17465;47.934;33.430;2022-09-20T03:49:35;13.00;12.75;7.50
30713;PMS7003;17465;47.934;33.430;2022-09-20T03:52:27;10.50;10.50;6.00
30713;PMS7003;17465;47.934;33.430;2022-09-20T04:01:03;9.50;9.00;5.00
30713;PMS7003;17465;47.934;33.430;2022-09-20T04:03:52;10.25;10.25;6.00
30713;PMS7003;17465;47.934;33.430;2022-09-20T04:06:44;9.50;9.50;6.00
30713;PMS7003;17465;47.934;33.430;2022-09-20T04:12:38;14.50;14.50;8.00
30713;PMS7003;17465;47.934;33.430;2022-09-20T04:21:19;15.25;12.75;7.00
30713;PMS7003;17465;47.934;33.430;2022-09-20T04:24:18;2.75;2.75;1.25
30713;PMS7003;17465;47.934;33.430;2022-09-20T04:26:51;13.25;11.00;6.50
30713;PMS7003;17465;47.934;33.430;2022-09-20T04:29:36;12.00;11.50;6.00
30713;PMS7003;17465;47.934;33.430;2022-09-20T04:38:13;9.00;7.75;4.25
30713;PMS7003;17465;47.934;33.430;2022-09-20T04:55:31;13.00;9.75;6.00
30713;PMS7003;17465;47.934;33.430;2022-09-20T05:56:13;14.80;13.60;10.20
30713;PMS7003;17465;47.934;33.430;2022-09-20T05:58:55;8.60;8.60;4.80
30713;PMS7003;17465;47.934;33.430;2022-09-20T06:10:42;11.40;10.40;6.60
30713;PMS7003;17465;47.934;33.430;2022-09-20T06:19:26;9.60;8.60;5.00
30713;PMS7003;17465;47.934;33.430;2022-09-20T06:22:15;12.60;12.00;6.00
30713;PMS7003;17465;47.934;33.430;2022-09-20T06:25:00;13.00;12.60;8.60
30713;PMS7003;17465;47.934;33.430;2022-09-20T06:27:51;13.80;13.80;8.40
30713;PMS7003;17465;47.934;33.430;2022-09-20T06:30:28;13.20;12.20;8.20
30713;PMS7003;17465;47.934;33.430;2022-09-20T06:33:09;12.60;10.20;6.40
30713;PMS7003;17465;47.934;33.430;2022-09-20T06:35:35;12.00;10.20;6.00
30713;PMS7003;17465;47.934;33.430;2022-09-20T06:38:19;10.40;10.00;5.20
30713;PMS7003;17465;47.934;33.430;2022-09-20T06:40:55;13.60;12.20;8.00
30713;PMS7003;17465;47.934;33.430;2022-09-20T06:43:35;11.80;11.20;7.40
30713;PMS7003;17465;47.934;33.430;2022-09-20T06:46:06;4.00;4.00;0.00
30713;PMS7003;17465;47.934;33.430;2022-09-20T06:48:41;11.00;10.40;5.40
30713;PMS7003;17465;47.934;33.430;2022-09-20T06:51:13;10.80;10.80;6.60
30713;PMS7003;17465;47.934;33.430;2022-09-20T06:53:43;8.00;6.80;3.80
30713;PMS7003;17465;47.934;33.430;2022-09-20T06:56:19;15.20;14.00;9.00
30713;PMS7003;17465;47.934;33.430;2022-09-20T06:59:03;15.40;15.40;10.40
30713;PMS7003;17465;47.934;33.430;2022-09-20T07:02:02;10.40;10.00;6.80
30713;PMS7003;17465;47.934;33.430;2022-09-20T07:04:33;15.40;14.00;10.00
30713;PMS7003;17465;47.934;33.430;2022-09-20T07:07:05;13.20;12.00;7.20
30713;PMS7003;17465;47.934;33.430;2022-09-20T07:10:12;20.40;18.40;11.20
30713;PMS7003;17465;47.934;33.430;2022-09-20T07:12:43;18.60;17.80;12.40
30713;PMS7003;17465;47.934;33.430;2022-09-20T07:15:32;20.75;20.50;13.50
30713;PMS7003;17465;47.934;33.430;2022-09-20T07:18:12;19.20;18.20;11.20
30713;PMS7003;17465;47.934;33.430;2022-09-20T07:20:43;13.80;13.20;10.40
30713;PMS7003;17465;47.934;33.430;2022-09-20T07:23:13;17.40;15.60;10.60
30713;PMS7003;17465;47.934;33.430;2022-09-20T07:25:50;18.00;16.00;10.80
30713;PMS7003;17465;47.934;33.430;2022-09-20T07:28:23;20.40;19.80;13.40
30713;PMS7003;17465;47.934;33.430;2022-09-20T07:30:54;22.80;22.80;16.40
30713;PMS7003;17465;47.934;33.430;2022-09-20T07:33:34;24.60;22.40;15.60
30713;PMS7003;17465;47.934;33.430;2022-09-20T07:36:24;23.60;22.20;15.20
30713;PMS7003;17465;47.934;33.430;2022-09-20T07:38:56;18.40;16.80;12.00
30713;PMS7003;17465;47.934;33.430;2022-09-20T07:41:27;23.40;22.40;15.00
30713;PMS7003;17465;47.934;33.430;2022-09-20T07:44:07;29.80;28.40;20.00
30713;PMS7003;17465;47.934;33.430;2022-09-20T07:46:38;19.60;19.00;16.80
30713;PMS7003;17465;47.934;33.430;2022-09-20T07:49:12;26.40;22.60;15.40
30713;PMS7003;17465;47.934;33.430;2022-09-20T07:51:44;17.20;17.20;12.20
30713;PMS7003;17465;47.934;33.430;2022-09-20T07:54:16;17.00;15.20;10.60
30713;PMS7003;17465;47.934;33.430;2022-09-20T07:59:41;12.00;9.20;5.40
30713;PMS7003;17465;47.934;33.430;2022-09-20T08:02:14;9.60;8.00;5.40
30713;PMS7003;17465;47.934;33.430;2022-09-20T08:04:46;9.40;7.00;4.00
30713;PMS7003;17465;47.934;33.430;2022-09-20T08:07:23;4.60;4.60;3.00
30713;PMS7003;17465;47.934;33.430;2022-09-20T08:09:54;6.40;6.00;4.80
30713;PMS7003;17465;47.934;33.430;2022-09-20T08:12:26;5.40;5.40;3.00
30713;PMS7003;17465;47.934;33.430;2022-09-20T08:15:00;7.00;6.00;3.20
30713;PMS7003;17465;47.934;33.430;2022-09-20T08:17:31;4.00;4.00;2.00
30713;PMS7003;17465;47.934;33.430;2022-09-20T08:20:02;4.40;4.40;2.40
30713;PMS7003;17465;47.934;33.430;2022-09-20T08:22:32;9.00;8.80;6.80
30713;PMS7003;17465;47.934;33.430;2022-09-20T08:25:09;5.40;5.20;2.80
30713;PMS7003;17465;47.934;33.430;2022-09-20T08:27:39;3.80;3.20;2.00
30713;PMS7003;17465;47.934;33.430;2022-09-20T08:30:09;3.00;3.00;2.00
30713;PMS7003;17465;47.934;33.430;2022-09-20T08:32:48;3.00;3.00;1.20
30713;PMS7003;17465;47.934;33.430;2022-09-20T08:35:20;3.80;3.80;1.80
30713;PMS7003;17465;47.934;33.430;2022-09-20T08:37:53;2.20;2.20;0.80
30713;PMS7003;17465;47.934;33.430;2022-09-20T08:40:26;2.80;2.80;1.40
30713;PMS7003;17465;47.934;33.430;2022-09-20T08:43:01;3.40;3.40;2.20
30713;PMS7003;17465;47.934;33.430;2022-09-20T08:45:34;3.40;3.40;1.60
30713;PMS7003;17465;47.934;33.430;2022-09-20T08:48:06;2.20;2.20;1.00
30713;PMS7003;17465;47.934;33.430;2022-09-20T08:50:46;3.00;2.00;0.00
30713;PMS7003;17465;47.934;33.430;2022-09-20T08:53:20;2.20;2.20;0.40
30713;PMS7003;17465;47.934;33.430;2022-09-20T08:55:52;2.00;2.00;1.00
30713;PMS7003;17465;47.934;33.430;2022-09-20T08:58:26;3.20;3.20;1.20
30713;PMS7003;17465;47.934;33.430;2022-09-20T09:00:59;2.80;2.80;0.80
30713;PMS7003;17465;47.934;33.430;2022-09-20T09:03:32;1.40;1.40;0.00
30713;PMS7003;17465;47.934;33.430;2022-09-20T09:06:02;3.00;3.00;1.60
30713;PMS7003;17465;47.934;33.430;2022-09-20T09:08:35;2.60;1.20;0.20
30713;PMS7003;17465;47.934;33.430;2022-09-20T09:11:15;2.00;2.00;0.20
30713;PMS7003;17465;47.934;33.430;2022-09-20T09:13:58;2.20;1.20;0.20
30713;PMS7003;17465;47.934;33.430;2022-09-20T09:16:47;1.40;1.00;0.20
30713;PMS7003;17465;47.934;33.430;2022-09-20T09:19:29;0.20;0.20;0.00
30713;PMS7003;17465;47.934;33.430;2022-09-20T09:22:03;1.00;1.00;0.00
30713;PMS7003;17465;47.934;33.430;2022-09-20T09:24:34;1.60;0.20;0.00
30713;PMS7003;17465;47.934;33.430;2022-09-20T09:27:16;0.00;0.00;0.00
30713;PMS7003;17465;47.934;33.430;2022-09-20T09:29:52;0.00;0.00;0.00
30713;PMS7003;17465;47.934;33.430;2022-09-20T09:32:28;0.20;0.20;0.20
30713;PMS7003;17465;47.934;33.430;2022-09-20T09:37:58;1.20;1.00;0.60
30713;PMS7003;17465;47.934;33.430;2022-09-20T09:40:30;1.80;1.80;0.60
30713;PMS7003;17465;47.934;33.430;2022-09-20T09:43:17;2.20;2.20;1.40
30713;PMS7003;17465;47.934;33.430;2022-09-20T09:46:20;1.00;0.80;0.00
30713;PMS7003;17465;47.934;33.430;2022-09-20T09:49:06;1.60;1.60;1.00
30713;PMS7003;17465;47.934;33.430;2022-09-20T09:52:06;1.60;1.60;0.20
30713;PMS7003;17465;47.934;33.430;2022-09-20T09:54:48;3.80;3.00;2.00
30713;PMS7003;17465;47.934;33.430;2022-09-20T10:12:29;2.20;2.20;1.00
30713;PMS7003;17465;47.934;33.430;2022-09-20T10:21:03;0.20;0.20;0.00
30713;PMS7003;17465;47.934;33.430;2022-09-20T10:26:35;0.40;0.40;0.00
30713;PMS7003;17465;47.934;33.430;2022-09-20T10:38:03;1.00;1.00;0.00
30713;PMS7003;17465;47.934;33.430;2022-09-20T11:07:16;4.00;4.00;3.80
30713;PMS7003;17465;47.934;33.430;2022-09-20T11:09:48;5.80;5.80;3.00
30713;PMS7003;17465;47.934;33.430;2022-09-20T11:12:26;5.60;5.60;4.00
30713;PMS7003;17465;47.934;33.430;2022-09-20T11:18:05;8.20;8.20;5.00
30713;PMS7003;17465;47.934;33.430;2022-09-20T11:20:39;6.40;5.20;3.20
30713;PMS7003;17465;47.934;33.430;2022-09-20T11:23:18;8.20;8.20;5.40
30713;PMS7003;17465;47.934;33.430;2022-09-20T11:25:54;10.60;9.00;5.00
30713;PMS7003;17465;47.934;33.430;2022-09-20T11:28:26;8.60;8.40;5.80
30713;PMS7003;17465;47.934;33.430;2022-09-20T11:31:17;8.00;8.00;5.80
30713;PMS7003;17465;47.934;33.430;2022-09-20T11:34:09;9.60;8.80;6.20
30713;PMS7003;17465;47.934;33.430;2022-09-20T11:39:18;7.60;7.60;6.20
30713;PMS7003;17465;47.934;33.430;2022-09-20T11:42:10;5.00;5.00;2.80
30713;PMS7003;17465;47.934;33.430;2022-09-20T11:44:48;4.60;4.60;2.80
30713;PMS7003;17465;47.934;33.430;2022-09-20T11:47:22;7.20;7.20;4.40
30713;PMS7003;17465;47.934;33.430;2022-09-20T11:55:49;7.80;6.80;4.20
30713;PMS7003;17465;47.934;33.430;2022-09-20T11:58:29;7.60;6.40;3.20
30713;PMS7003;17465;47.934;33.430;2022-09-20T12:01:00;6.20;6.20;3.80
30713;PMS7003;17465;47.934;33.430;2022-09-20T12:03:36;7.00;7.00;4.80
30713;PMS7003;17465;47.934;33.430;2022-09-20T12:06:20;7.00;4.40;3.20
30713;PMS7003;17465;47.934;33.430;2022-09-20T12:08:53;7.40;7.40;5.80
30713;PMS7003;17465;47.934;33.430;2022-09-20T12:11:33;9.20;9.20;6.20
30713;PMS7003;17465;47.934;33.430;2022-09-20T12:14:16;7.60;6.00;4.00
30713;PMS7003;17465;47.934;33.430;2022-09-20T12:16:49;6.80;6.80;4.40
30713;PMS7003;17465;47.934;33.430;2022-09-20T12:24:40;5.80;5.80;3.20
30713;PMS7003;17465;47.934;33.430;2022-09-20T12:30:19;5.40;4.20;1.20
30713;PMS7003;17465;47.934;33.430;2022-09-20T12:32:52;6.80;6.00;3.20
30713;PMS7003;17465;47.934;33.430;2022-09-20T12:38:26;9.40;7.80;4.80
30713;PMS7003;17465;47.934;33.430;2022-09-20T12:41:03;6.60;6.60;4.20
30713;PMS7003;17465;47.934;33.430;2022-09-20T12:43:37;6.60;5.80;3.20
30713;PMS7003;17465;47.934;33.430;2022-09-20T12:54:48;6.80;6.00;3.20
30713;PMS7003;17465;47.934;33.430;2022-09-20T12:57:26;3.20;3.20;2.00
30713;PMS7003;17465;47.934;33.430;2022-09-20T12:59:58;2.40;2.40;1.20
30713;PMS7003;17465;47.934;33.430;2022-09-20T13:02:41;3.40;2.80;0.20
30713;PMS7003;17465;47.934;33.430;2022-09-20T13:05:32;4.80;4.80;2.80
30713;PMS7003;17465;47.934;33.430;2022-09-20T13:08:29;3.20;2.20;1.00
30713;PMS7003;17465;47.934;33.430;2022-09-20T13:13:40;7.00;5.80;3.80
30713;PMS7003;17465;47.934;33.430;2022-09-20T13:16:17;3.20;3.20;0.20
30713;PMS7003;17465;47.934;33.430;2022-09-20T13:19:36;4.60;4.60;3.60
30713;PMS7003;17465;47.934;33.430;2022-09-20T13:21:30;4.80;3.60;2.20
30713;PMS7003;17465;47.934;33.430;2022-09-20T13:24:14;3.40;3.40;1.60
30713;PMS7003;17465;47.934;33.430;2022-09-20T13:26:46;4.20;4.20;2.60
30713;PMS7003;17465;47.934;33.430;2022-09-20T13:32:28;4.20;4.00;2.20
30713;PMS7003;17465;47.934;33.430;2022-09-20T13:38:04;5.20;4.00;2.00
30713;PMS7003;17465;47.934;33.430;2022-09-20T13:40:36;5.80;5.80;3.80
30713;PMS7003;17465;47.934;33.430;2022-09-20T13:45:54;3.20;3.20;2.40
30713;PMS7003;17465;47.934;33.430;2022-09-20T13:48:32;4.60;4.60;2.80
30713;PMS7003;17465;47.934;33.430;2022-09-20T13:51:19;5.60;5.60;2.80
30713;PMS7003;17465;47.934;33.430;2022-09-20T13:57:05;6.40;6.20;3.20
30713;PMS7003;17465;47.934;33.430;2022-09-20T13:59:44;4.80;4.80;2.40
30713;PMS7003;17465;47.934;33.430;2022-09-20T14:02:31;4.20;3.60;2.60
30713;PMS7003;17465;47.934;33.430;2022-09-20T14:05:04;4.40;4.40;2.80
30713;PMS7003;17465;47.934;33.430;2022-09-20T14:07:41;4.80;4.80;3.40
30713;PMS7003;17465;47.934;33.430;2022-09-20T14:11:18;6.20;5.20;3.00
30713;PMS7003;17465;47.934;33.430;2022-09-20T14:12:58;4.80;4.80;3.00
30713;PMS7003;17465;47.934;33.430;2022-09-20T14:15:33;4.00;4.00;3.40
30713;PMS7003;17465;47.934;33.430;2022-09-20T14:18:28;6.60;6.00;4.00
30713;PMS7003;17465;47.934;33.430;2022-09-20T14:20:59;7.80;6.40;4.60
30713;PMS7003;17465;47.934;33.430;2022-09-20T14:23:46;9.40;9.40;5.80
30713;PMS7003;17465;47.934;33.430;2022-09-20T14:26:04;12.60;10.60;7.20
30713;PMS7003;17465;47.934;33.430;2022-09-20T14:28:46;8.60;8.60;5.60
30713;PMS7003;17465;47.934;33.430;2022-09-20T14:31:20;8.60;8.60;6.00
30713;PMS7003;17465;47.934;33.430;2022-09-20T14:34:00;9.60;7.60;4.80
30713;PMS7003;17465;47.934;33.430;2022-09-20T14:36:38;6.40;6.20;4.00
30713;PMS7003;17465;47.934;33.430;2022-09-20T14:39:10;8.40;8.40;5.20
30713;PMS7003;17465;47.934;33.430;2022-09-20T14:41:42;6.40;5.40;4.00
30713;PMS7003;17465;47.934;33.430;2022-09-20T14:44:23;6.20;5.60;3.80
30713;PMS7003;17465;47.934;33.430;2022-09-20T14:46:58;6.00;6.00;4.20
30713;PMS7003;17465;47.934;33.430;2022-09-20T14:49:53;7.00;7.00;4.40
30713;PMS7003;17465;47.934;33.430;2022-09-20T14:55:14;12.40;11.00;8.20
30713;PMS7003;17465;47.934;33.430;2022-09-20T14:57:44;13.00;11.00;6.20
30713;PMS7003;17465;47.934;33.430;2022-09-20T15:00:15;13.20;10.60;7.20
30713;PMS7003;17465;47.934;33.430;2022-09-20T15:02:46;12.80;12.80;9.40
30713;PMS7003;17465;47.934;33.430;2022-09-20T15:05:25;19.80;19.00;12.40
30713;PMS7003;17465;47.934;33.430;2022-09-20T15:07:56;12.50;12.25;9.00
30713;PMS7003;17465;47.934;33.430;2022-09-20T15:10:29;15.60;15.60;13.00
30713;PMS7003;17465;47.934;33.430;2022-09-20T15:12:59;13.50;13.50;9.00
30713;PMS7003;17465;47.934;33.430;2022-09-20T15:15:31;22.75;20.50;13.75
30713;PMS7003;17465;47.934;33.430;2022-09-20T15:18:07;19.50;17.00;10.75
30713;PMS7003;17465;47.934;33.430;2022-09-20T15:20:38;26.75;21.25;14.00
30713;PMS7003;17465;47.934;33.430;2022-09-20T15:23:08;19.60;19.40;9.40
30713;PMS7003;17465;47.934;33.430;2022-09-20T15:25:39;21.20;14.40;8.80
30713;PMS7003;17465;47.934;33.430;2022-09-20T15:28:14;20.80;17.00;8.20
30713;PMS7003;17465;47.934;33.430;2022-09-20T15:30:46;14.00;12.25;7.75
30713;PMS7003;17465;47.934;33.430;2022-09-20T15:33:19;9.40;7.80;4.00
30713;PMS7003;17465;47.934;33.430;2022-09-20T15:35:53;4.80;4.80;2.20
30713;PMS7003;17465;47.934;33.430;2022-09-20T15:38:24;6.40;6.40;2.60
30713;PMS7003;17465;47.934;33.430;2022-09-20T15:40:55;5.20;3.80;2.40
30713;PMS7003;17465;47.934;33.430;2022-09-20T15:43:28;8.20;6.60;4.00
30713;PMS7003;17465;47.934;33.430;2022-09-20T15:46:00;5.40;5.40;2.00
30713;PMS7003;17465;47.934;33.430;2022-09-20T15:51:33;4.80;4.20;2.00
30713;PMS7003;17465;47.934;33.430;2022-09-20T15:54:05;3.60;3.00;1.60
30713;PMS7003;17465;47.934;33.430;2022-09-20T15:56:36;2.40;2.00;0.40
30713;PMS7003;17465;47.934;33.430;2022-09-20T15:59:07;3.80;3.00;2.00
30713;PMS7003;17465;47.934;33.430;2022-09-20T16:01:40;2.00;1.80;1.20
30713;PMS7003;17465;47.934;33.430;2022-09-20T16:04:13;2.00;2.00;1.00
30713;PMS7003;17465;47.934;33.430;2022-09-20T16:06:51;6.00;4.80;2.20
30713;PMS7003;17465;47.934;33.430;2022-09-20T16:09:18;3.40;3.40;2.40
30713;PMS7003;17465;47.934;33.430;2022-09-20T16:11:48;3.40;2.80;1.00
30713;PMS7003;17465;47.934;33.430;2022-09-20T16:14:19;2.60;2.60;1.80
30713;PMS7003;17465;47.934;33.430;2022-09-20T16:16:50;2.80;2.80;1.00
30713;PMS7003;17465;47.934;33.430;2022-09-20T16:19:20;2.20;2.20;1.40
30713;PMS7003;17465;47.934;33.430;2022-09-20T16:21:56;4.80;3.40;1.60
30713;PMS7003;17465;47.934;33.430;2022-09-20T16:24:29;3.40;3.40;2.20
30713;PMS7003;17465;47.934;33.430;2022-09-20T16:27:06;5.60;5.60;3.00
30713;PMS7003;17465;47.934;33.430;2022-09-20T16:29:38;8.20;7.80;4.80
30713;PMS7003;17465;47.934;33.430;2022-09-20T16:32:08;6.00;6.00;4.25
30713;PMS7003;17465;47.934;33.430;2022-09-20T16:34:40;5.75;5.75;3.75
30713;PMS7003;17465;47.934;33.430;2022-09-20T16:37:14;7.60;5.40;3.40
30713;PMS7003;17465;47.934;33.430;2022-09-20T16:39:44;5.60;4.00;2.80
30713;PMS7003;17465;47.934;33.430;2022-09-20T16:42:18;4.80;4.80;2.80
30713;PMS7003;17465;47.934;33.430;2022-09-20T16:44:49;5.25;5.25;3.00
30713;PMS7003;17465;47.934;33.430;2022-09-20T16:47:20;2.60;2.60;1.40
30713;PMS7003;17465;47.934;33.430;2022-09-20T16:49:50;4.60;4.60;2.80
30713;PMS7003;17465;47.934;33.430;2022-09-20T16:52:21;4.00;3.75;2.00
30713;PMS7003;17465;47.934;33.430;2022-09-20T16:54:52;6.75;6.75;3.75
30713;PMS7003;17465;47.934;33.430;2022-09-20T16:57:22;9.25;9.00;6.00
30713;PMS7003;17465;47.934;33.430;2022-09-20T16:59:53;8.25;7.25;4.25
30713;PMS7003;17465;47.934;33.430;2022-09-20T17:02:24;9.00;7.00;4.50
30713;PMS7003;17465;47.934;33.430;2022-09-20T17:04:54;7.50;7.50;5.00
30713;PMS7003;17465;47.934;33.430;2022-09-20T17:07:25;7.50;6.00;4.00
30713;PMS7003;17465;47.934;33.430;2022-09-20T17:09:56;7.25;6.25;4.50
30713;PMS7003;17465;47.934;33.430;2022-09-20T17:12:27;5.00;5.00;4.00
30713;PMS7003;17465;47.934;33.430;2022-09-20T17:14:58;6.00;6.00;4.25
30713;PMS7003;17465;47.934;33.430;2022-09-20T17:17:29;7.00;7.00;3.25
30713;PMS7003;17465;47.934;33.430;2022-09-20T17:19:59;5.50;5.50;3.25
30713;PMS7003;17465;47.934;33.430;2022-09-20T17:22:30;5.25;5.00;3.00
30713;PMS7003;17465;47.934;33.430;2022-09-20T17:25:01;8.75;8.00;5.50
30713;PMS7003;17465;47.934;33.430;2022-09-20T17:27:34;7.50;6.00;4.00
30713;PMS7003;17465;47.934;33.430;2022-09-20T17:30:23;6.25;6.25;3.50
30713;PMS7003;17465;47.934;33.430;2022-09-20T17:32:57;5.25;5.25;3.75
30713;PMS7003;17465;47.934;33.430;2022-09-20T17:35:27;4.25;4.00;1.50
30713;PMS7003;17465;47.934;33.430;2022-09-20T17:37:59;5.00;5.00;3.00
30713;PMS7003;17465;47.934;33.430;2022-09-20T17:40:30;3.00;3.00;2.00
30713;PMS7003;17465;47.934;33.430;2022-09-20T17:43:03;3.75;3.00;2.00
30713;PMS7003;17465;47.934;33.430;2022-09-20T17:45:32;4.75;4.75;3.50
30713;PMS7003;17465;47.934;33.430;2022-09-20T17:48:03;4.00;4.00;3.00
30713;PMS7003;17465;47.934;33.430;2022-09-20T17:50:34;3.25;3.25;2.50
30713;PMS7003;17465;47.934;33.430;2022-09-20T17:53:04;5.25;5.25;4.25
30713;PMS7003;17465;47.934;33.430;2022-09-20T17:55:34;3.50;3.50;2.00
30713;PMS7003;17465;47.934;33.430;2022-09-20T17:58:05;2.00;2.00;1.00
30713;PMS7003;17465;47.934;33.430;2022-09-20T18:00:35;2.00;2.00;1.00
30713;PMS7003;17465;47.934;33.430;2022-09-20T18:03:05;1.25;1.25;0.75
30713;PMS7003;17465;47.934;33.430;2022-09-20T18:05:36;2.50;2.50;1.50
30713;PMS7003;17465;47.934;33.430;2022-09-20T18:08:07;1.50;1.50;0.50
30713;PMS7003;17465;47.934;33.430;2022-09-20T18:10:38;1.00;1.00;0.00
30713;PMS7003;17465;47.934;33.430;2022-09-20T18:13:11;2.50;2.50;1.25
30713;PMS7003;17465;47.934;33.430;2022-09-20T18:15:46;2.00;2.00;1.00
30713;PMS7003;17465;47.934;33.430;2022-09-20T18:18:16;2.75;2.75;1.50
30713;PMS7003;17465;47.934;33.430;2022-09-20T18:20:47;2.00;2.00;2.00
30713;PMS7003;17465;47.934;33.430;2022-09-20T18:23:17;2.00;2.00;1.00
30713;PMS7003;17465;47.934;33.430;2022-09-20T18:25:48;1.75;1.75;1.25
30713;PMS7003;17465;47.934;33.430;2022-09-20T18:28:18;2.00;2.00;1.00
30713;PMS7003;17465;47.934;33.430;2022-09-20T18:30:58;0.25;0.25;0.00
30713;PMS7003;17465;47.934;33.430;2022-09-20T18:33:30;2.00;2.00;1.00
30713;PMS7003;17465;47.934;33.430;2022-09-20T18:36:04;2.75;2.75;1.00
30713;PMS7003;17465;47.934;33.430;2022-09-20T18:38:35;2.00;2.00;1.50
30713;PMS7003;17465;47.934;33.430;2022-09-20T18:41:06;3.00;3.00;2.00
30713;PMS7003;17465;47.934;33.430;2022-09-20T18:43:37;2.00;2.00;1.00
30713;PMS7003;17465;47.934;33.430;2022-09-20T18:46:12;2.00;1.75;1.00
30713;PMS7003;17465;47.934;33.430;2022-09-20T18:48:44;2.00;2.00;1.00
30713;PMS7003;17465;47.934;33.430;2022-09-20T18:51:14;3.25;1.50;1.00
30713;PMS7003;17465;47.934;33.430;2022-09-20T18:53:48;2.00;2.00;1.00
30713;PMS7003;17465;47.934;33.430;2022-09-20T18:59:01;3.00;2.75;1.50
30713;PMS7003;17465;47.934;33.430;2022-09-20T19:01:43;3.25;3.25;2.00
30713;PMS7003;17465;47.934;33.430;2022-09-20T19:07:56;2.75;2.75;1.00
30713;PMS7003;17465;47.934;33.430;2022-09-20T19:13:27;4.75;2.50;1.00
30713;PMS7003;17465;47.934;33.430;2022-09-20T19:28:01;3.75;3.00;1.00
30713;PMS7003;17465;47.934;33.430;2022-09-20T19:30:45;4.00;3.00;2.00
30713;PMS7003;17465;47.934;33.430;2022-09-20T19:33:15;3.50;3.50;2.00
30713;PMS7003;17465;47.934;33.430;2022-09-20T19:35:49;2.00;2.00;1.00
30713;PMS7003;17465;47.934;33.430;2022-09-20T19:46:49;3.00;3.00;1.50
30713;PMS7003;17465;47.934;33.430;2022-09-20T19:52:24;2.00;2.00;1.00
30713;PMS7003;17465;47.934;33.430;2022-09-20T19:54:55;3.25;3.00;2.00
30713;PMS7003;17465;47.934;33.430;2022-09-20T19:57:33;2.50;2.50;1.00
30713;PMS7003;17465;47.934;33.430;2022-09-20T20:00:14;4.00;3.00;2.00
30713;PMS7003;17465;47.934;33.430;2022-09-20T20:02:46;3.00;3.00;2.00
30713;PMS7003;17465;47.934;33.430;2022-09-20T20:05:18;3.75;3.75;2.00
30713;PMS7003;17465;47.934;33.430;2022-09-20T20:13:59;3.75;3.75;2.25
30713;PMS7003;17465;47.934;33.430;2022-09-20T20:16:50;4.00;4.00;2.00
30713;PMS7003;17465;47.934;33.430;2022-09-20T20:24:57;3.00;3.00;2.00
30713;PMS7003;17465;47.934;33.430;2022-09-20T20:27:29;2.25;2.25;2.00
30713;PMS7003;17465;47.934;33.430;2022-09-20T20:30:00;2.50;2.50;1.75
30713;PMS7003;17465;47.934;33.430;2022-09-20T20:32:31;3.00;3.00;2.00
30713;PMS7003;17465;47.934;33.430;2022-09-20T20:35:01;3.00;3.00;1.75
30713;PMS7003;17465;47.934;33.430;2022-09-20T20:37:32;3.50;3.50;2.75
30713;PMS7003;17465;47.934;33.430;2022-09-20T20:40:03;2.00;2.00;1.00